Vitoria Coentrao — CUFT8 — position and weather

sailwx.info

Track history (hours):
 
Tides and Currents Weather Stations Pressure Air Temp Water Temp Dewpoint Dewpoint Depression Visibility Wind Speed Wind Dir Waves Ship Positions

Vitoria Coentrao

Last reported at 2018-May-28 00:17 UTC. Time now 2018-May-28 04:52 UTC.
Position N 41°07' W 008°48'.

Type: Fishing. MMSI: 263414680.

Date/timePositionNaut miles runAvg speedWind from/ knotsBaromVisibWave heightAir tempDewpointWater temp
2018-May-28 00:17N 41°07' W 008°48'3 9.1
2018-May-28 00:00N 41°09' W 008°46'4 7.1
2018-May-27 23:30N 41°11' W 008°42'0 0.0
2018-May-27 23:00N 41°11' W 008°42'0 0.0
2018-May-27 22:30N 41°11' W 008°42'  
2018-May-25 11:01N 41°11' W 008°42'0 0.0
2018-May-25 11:00N 41°11' W 008°42'0 0.3
2018-May-25 10:30N 41°11' W 008°42'0 0.0
2018-May-25 10:00N 41°11' W 008°42'0 0.0
2018-May-25 09:30N 41°11' W 008°42'4 7.6
2018-May-25 08:59N 41°07' W 008°45'5 0.5
2018-May-24 22:49N 41°10' W 008°50'3 9.0
2018-May-24 22:30N 41°10' W 008°46'3 6.7
2018-May-24 22:00N 41°11' W 008°42'0 0.0
2018-May-24 21:30N 41°11' W 008°42'0 0.0
2018-May-24 21:00N 41°11' W 008°42'0 0.0
2018-May-24 20:30N 41°11' W 008°42'0 0.0
2018-May-24 20:00N 41°11' W 008°42'0 0.0
2018-May-24 19:30N 41°11' W 008°42'0 0.0
2018-May-24 19:00N 41°11' W 008°42'0 0.0
2018-May-24 18:30N 41°11' W 008°42'0 0.0
2018-May-24 18:00N 41°11' W 008°42'0 0.0
2018-May-24 17:30N 41°11' W 008°42'0 0.0
2018-May-24 17:00N 41°11' W 008°42'0 0.0
2018-May-24 16:30N 41°11' W 008°42'0 0.0
2018-May-24 16:00N 41°11' W 008°42'0 0.0
2018-May-24 15:30N 41°11' W 008°42'0 0.0
2018-May-24 15:00N 41°11' W 008°42'0 0.0
2018-May-24 14:30N 41°11' W 008°42'0 0.0
2018-May-24 14:00N 41°11' W 008°42'0 0.0
2018-May-24 13:30N 41°11' W 008°42'0 0.0
2018-May-24 09:00N 41°11' W 008°42'0 0.0
2018-May-24 08:30N 41°11' W 008°42'1 1.2
2018-May-24 08:00N 41°10' W 008°42'4 8.1
2018-May-24 07:30N 41°12' W 008°47'3 0.1
2018-May-23 05:19N 41°15' W 008°50'3 9.1
2018-May-23 05:00N 41°12' W 008°50'  
2018-May-20 23:31N 41°03' W 008°47'0 9.3
2018-May-20 23:29N 41°04' W 008°47'4 9.2
2018-May-20 23:00N 41°08' W 008°45'  
2018-May-18 04:30N 41°11' W 008°42'3 6.2
2018-May-18 04:00N 41°08' W 008°41'  
Track history (hours):
 
Tides and Currents Weather Stations Pressure Air Temp Water Temp Dewpoint Dewpoint Depression Visibility Wind Speed Wind Dir Waves Ship Positions

Vitoria Coentrao

Last reported at 2018-May-28 00:17 UTC. Time now 2018-May-28 04:52 UTC.
Position N 41°07' W 008°48'.

Type: Fishing. MMSI: 263414680.

Date/timePositionNaut miles runAvg speedWind from/ knotsBaromVisibWave heightAir tempDewpointWater temp
2018-May-28 00:17N 41°07' W 008°48'3 9.1
2018-May-28 00:00N 41°09' W 008°46'4 7.1
2018-May-27 23:30N 41°11' W 008°42'0 0.0
2018-May-27 23:00N 41°11' W 008°42'0 0.0
2018-May-27 22:30N 41°11' W 008°42'  
2018-May-25 11:01N 41°11' W 008°42'0 0.0
2018-May-25 11:00N 41°11' W 008°42'0 0.3
2018-May-25 10:30N 41°11' W 008°42'0 0.0
2018-May-25 10:00N 41°11' W 008°42'0 0.0
2018-May-25 09:30N 41°11' W 008°42'4 7.6
2018-May-25 08:59N 41°07' W 008°45'5 0.5
2018-May-24 22:49N 41°10' W 008°50'3 9.0
2018-May-24 22:30N 41°10' W 008°46'3 6.7
2018-May-24 22:00N 41°11' W 008°42'0 0.0
2018-May-24 21:30N 41°11' W 008°42'0 0.0
2018-May-24 21:00N 41°11' W 008°42'0 0.0
2018-May-24 20:30N 41°11' W 008°42'0 0.0
2018-May-24 20:00N 41°11' W 008°42'0 0.0
2018-May-24 19:30N 41°11' W 008°42'0 0.0
2018-May-24 19:00N 41°11' W 008°42'0 0.0
2018-May-24 18:30N 41°11' W 008°42'0 0.0
2018-May-24 18:00N 41°11' W 008°42'0 0.0
2018-May-24 17:30N 41°11' W 008°42'0 0.0
2018-May-24 17:00N 41°11' W 008°42'0 0.0
2018-May-24 16:30N 41°11' W 008°42'0 0.0
2018-May-24 16:00N 41°11' W 008°42'0 0.0
2018-May-24 15:30N 41°11' W 008°42'0 0.0
2018-May-24 15:00N 41°11' W 008°42'0 0.0
2018-May-24 14:30N 41°11' W 008°42'0 0.0
2018-May-24 14:00N 41°11' W 008°42'0 0.0
2018-May-24 13:30N 41°11' W 008°42'0 0.0
2018-May-24 09:00N 41°11' W 008°42'0 0.0
2018-May-24 08:30N 41°11' W 008°42'1 1.2
2018-May-24 08:00N 41°10' W 008°42'4 8.1
2018-May-24 07:30N 41°12' W 008°47'3 0.1
2018-May-23 05:19N 41°15' W 008°50'3 9.1
2018-May-23 05:00N 41°12' W 008°50'  
2018-May-20 23:31N 41°03' W 008°47'0 9.3
2018-May-20 23:29N 41°04' W 008°47'4 9.2
2018-May-20 23:00N 41°08' W 008°45'  
2018-May-18 04:30N 41°11' W 008°42'3 6.2
2018-May-18 04:00N 41°08' W 008°41'  

Dump ship's entire track history